Time;durP1;ratioP1;P1;durP2;ratioP2;P2;SDS_P1;SDS_P2;PMS_P1;PMS_P2;Temp;Humidity;BMP_temperature;BMP_pressure;BME280_temperature;BME280_humidity;BME280_pressure;Samples;Min_cycle;Max_cycle;Signal;HPM_P1;HPM_P2
2023/09/03 00:00:57;;;;;;;16.70;11.98;;;;;;;15.35;100.00;102497.59;5041507;28;20475;-94
2023/09/03 00:03:27;;;;;;;18.13;12.25;;;;;;;15.33;100.00;102491.47;5035716;28;20038;-89
2023/09/03 00:05:54;;;;;;;16.85;12.48;;;;;;;15.35;100.00;102492.22;5038556;28;20030;-93
2023/09/03 00:08:26;;;;;;;18.42;13.75;;;;;;;15.36;100.00;102496.66;5038038;28;20050;-92
2023/09/03 00:10:53;;;;;;;17.80;13.50;;;;;;;15.34;100.00;102502.13;5010202;28;20034;-95
2023/09/03 00:13:20;;;;;;;24.38;17.13;;;;;;;15.29;100.00;102501.50;5020695;28;20037;-92
2023/09/03 00:15:45;;;;;;;20.48;15.95;;;;;;;15.26;100.00;102504.34;5044722;28;20782;-94
2023/09/03 00:18:12;;;;;;;21.88;17.58;;;;;;;15.26;100.00;102516.00;5033711;28;20479;-93
2023/09/03 00:20:38;;;;;;;21.52;15.18;;;;;;;15.35;100.00;102514.59;5021174;28;20554;-92
2023/09/03 00:23:04;;;;;;;31.20;16.48;;;;;;;15.30;100.00;102519.38;5018411;28;20558;-90
2023/09/03 00:25:37;;;;;;;22.35;15.02;;;;;;;15.26;100.00;102525.84;5037103;28;20038;-89
2023/09/03 00:28:03;;;;;;;;;;;;;;;15.14;100.00;102522.06;5030540;28;20038;-89
2023/09/03 00:30:31;;;;;;;20.38;14.88;;;;;;;14.98;100.00;102521.16;5049637;28;19952;-92
2023/09/03 00:32:57;;;;;;;25.60;15.98;;;;;;;15.09;100.00;102517.88;5021579;28;20475;-93
2023/09/03 00:35:26;;;;;;;21.85;16.25;;;;;;;15.14;100.00;102526.56;5021782;28;20030;-93
2023/09/03 00:37:51;;;;;;;22.90;14.98;;;;;;;15.04;100.00;102523.50;5004486;28;20216;-94
2023/09/03 00:40:17;;;;;;;26.63;17.10;;;;;;;15.05;100.00;102524.38;5020750;28;20121;-93
2023/09/03 00:42:43;;;;;;;20.90;14.80;;;;;;;14.91;100.00;102530.50;5005631;28;20065;-92
2023/09/03 00:45:09;;;;;;;25.52;16.10;;;;;;;14.77;100.00;102537.50;5005009;28;20056;-94
2023/09/03 00:47:35;;;;;;;21.55;16.55;;;;;;;14.79;100.00;102544.59;5021540;28;20037;-92
2023/09/03 00:50:03;;;;;;;22.80;16.30;;;;;;;14.86;100.00;102546.91;5021098;28;20037;-92
2023/09/03 00:52:30;;;;;;;24.73;17.48;;;;;;;14.67;100.00;102557.75;5020793;28;20038;-93
2023/09/03 00:54:57;;;;;;;26.23;17.83;;;;;;;14.62;100.00;102549.06;5020795;28;20052;-91
2023/09/03 00:57:26;;;;;;;25.48;18.02;;;;;;;14.67;100.00;102559.56;5038731;28;20121;-92
2023/09/03 00:59:53;;;;;;;22.63;18.13;;;;;;;14.67;100.00;102548.81;5004891;28;20034;-91
2023/09/03 01:02:20;;;;;;;24.80;16.58;;;;;;;14.74;100.00;102537.66;5022152;28;20527;-93
2023/09/03 01:04:46;;;;;;;23.40;16.90;;;;;;;14.75;100.00;102517.91;5004692;28;20041;-93
2023/09/03 01:07:14;;;;;;;29.05;18.42;;;;;;;14.77;100.00;102515.16;5051717;28;20041;-92
2023/09/03 01:09:40;;;;;;;20.95;15.82;;;;;;;14.82;100.00;102507.72;5041993;28;20045;-93
2023/09/03 01:12:31;;;;;;;21.08;15.77;;;;;;;14.85;100.00;102517.41;5043222;28;20033;-91
2023/09/03 01:14:56;;;;;;;23.88;16.48;;;;;;;14.77;100.00;102515.16;5043471;28;20042;-91
2023/09/03 01:17:35;;;;;;;24.85;17.17;;;;;;;14.79;100.00;102507.00;5060288;28;20109;-91
2023/09/03 01:20:31;;;;;;;22.77;15.23;;;;;;;14.73;100.00;102514.44;5027067;28;20044;-91
2023/09/03 01:23:18;;;;;;;24.58;17.00;;;;;;;14.60;100.00;102516.03;5042642;28;20395;-91
2023/09/03 01:26:31;;;;;;;23.13;16.17;;;;;;;14.64;100.00;102523.00;5042883;28;20029;-93
2023/09/03 01:28:58;;;;;;;22.83;14.38;;;;;;;14.57;100.00;102518.06;5024852;28;20684;-91
2023/09/03 01:31:25;;;;;;;16.35;12.70;;;;;;;14.47;100.00;102518.53;5058685;28;20506;-90
2023/09/03 01:34:02;;;;;;;16.85;11.88;;;;;;;14.43;100.00;102513.38;5004479;28;20030;-90
2023/09/03 01:36:31;;;;;;;24.67;16.45;;;;;;;14.42;100.00;102527.75;5030397;28;20124;-91
2023/09/03 01:39:03;;;;;;;19.52;14.95;;;;;;;14.37;100.00;102519.94;5025365;28;20095;-92
2023/09/03 01:41:34;;;;;;;22.05;17.02;;;;;;;14.36;100.00;102528.94;5025942;28;20100;-93
2023/09/03 01:44:02;;;;;;;22.33;14.83;;;;;;;14.38;100.00;102531.53;5061156;28;20588;-92
2023/09/03 01:46:47;;;;;;;22.67;15.98;;;;;;;14.25;100.00;102539.34;5043334;28;20393;-92
2023/09/03 01:49:17;;;;;;;27.08;17.27;;;;;;;14.25;100.00;102524.09;5061464;28;20116;-91
2023/09/03 01:51:57;;;;;;;26.83;17.08;;;;;;;14.34;100.00;102522.75;5044901;28;20043;-91
2023/09/03 01:54:39;;;;;;;30.88;18.08;;;;;;;14.35;100.00;102527.19;5028748;28;20033;-91
2023/09/03 01:57:05;;;;;;;20.80;16.27;;;;;;;14.31;100.00;102530.09;5025854;28;20060;-91
2023/09/03 01:59:48;;;;;;;24.35;16.77;;;;;;;14.33;100.00;102542.50;5034571;28;20125;-90
2023/09/03 02:02:16;;;;;;;24.25;17.80;;;;;;;14.32;100.00;102540.78;5027876;28;20123;-90
2023/09/03 02:04:43;;;;;;;26.88;17.73;;;;;;;14.29;100.00;102548.09;5027454;28;20647;-90
2023/09/03 02:07:09;;;;;;;24.98;16.83;;;;;;;14.27;100.00;102553.56;5023716;28;20046;-91
2023/09/03 02:09:35;;;;;;;24.85;17.77;;;;;;;14.27;100.00;102541.97;5023411;28;20098;-91
2023/09/03 02:12:02;;;;;;;29.40;17.52;;;;;;;14.24;100.00;102546.53;5006016;28;20024;-90
2023/09/03 02:14:28;;;;;;;31.67;20.45;;;;;;;14.35;100.00;102537.91;5005043;28;20038;-91
2023/09/03 02:16:54;;;;;;;26.67;18.25;;;;;;;14.42;100.00;102543.84;5040096;28;20045;-91
2023/09/03 02:19:21;;;;;;;28.25;17.50;;;;;;;14.39;100.00;102542.19;5025076;28;20024;-90
2023/09/03 02:21:47;;;;;;;25.58;17.90;;;;;;;14.34;100.00;102544.22;5025580;28;20085;-90
2023/09/03 02:24:16;;;;;;;30.58;20.15;;;;;;;14.38;100.00;102558.38;5025243;28;20034;-90
2023/09/03 02:26:43;;;;;;;29.27;18.98;;;;;;;14.34;100.00;102552.28;5025481;28;20042;-91
2023/09/03 02:29:12;;;;;;;25.80;18.08;;;;;;;14.36;100.00;102549.53;5010017;28;20090;-91
2023/09/03 02:31:40;;;;;;;23.58;17.73;;;;;;;14.35;100.00;102547.78;5026977;28;20341;-91
2023/09/03 02:34:07;;;;;;;28.48;18.02;;;;;;;14.31;100.00;102548.88;5026317;28;20466;-89
2023/09/03 02:36:34;;;;;;;28.85;17.67;;;;;;;14.34;100.00;102540.69;5043243;28;20037;-89
2023/09/03 02:39:02;;;;;;;26.95;17.77;;;;;;;14.36;100.00;102537.00;5009687;28;20049;-90
2023/09/03 02:41:37;;;;;;;30.30;18.88;;;;;;;14.32;100.00;102524.69;5027289;28;20239;-90
2023/09/03 02:44:03;;;;;;;24.42;18.30;;;;;;;14.33;100.00;102526.41;5027659;28;20040;-91
2023/09/03 02:46:33;;;;;;;24.23;17.98;;;;;;;14.33;100.00;102528.22;5011866;28;20034;-89
2023/09/03 02:48:58;;;;;;;29.23;18.65;;;;;;;14.30;100.00;102523.00;5011460;28;20030;-90
2023/09/03 02:51:24;;;;;;;23.70;17.77;;;;;;;14.29;100.00;102518.59;5011841;28;20034;-89
2023/09/03 02:53:51;;;;;;;28.50;18.95;;;;;;;14.24;100.00;102514.31;5045012;28;20041;-91
2023/09/03 02:56:17;;;;;;;29.88;18.83;;;;;;;14.27;100.00;102517.81;5028722;28;20030;-90
2023/09/03 02:58:46;;;;;;;26.08;17.95;;;;;;;14.28;100.00;102503.44;5014122;28;20024;-90
2023/09/03 03:01:15;;;;;;;28.70;19.10;;;;;;;14.29;100.00;102489.06;5015037;28;20038;-91
2023/09/03 03:03:41;;;;;;;29.70;18.88;;;;;;;14.28;100.00;102493.56;5014625;28;20041;-91
2023/09/03 03:06:07;;;;;;;24.10;17.45;;;;;;;14.25;100.00;102497.28;5015217;28;20038;-91
2023/09/03 03:08:33;;;;;;;27.58;18.98;;;;;;;14.18;100.00;102503.06;5032986;28;20053;-91
2023/09/03 03:11:10;;;;;;;24.00;16.30;;;;;;;14.10;100.00;102507.94;5032927;28;20034;-90
2023/09/03 03:13:40;;;;;;;31.92;16.30;;;;;;;13.97;100.00;102519.31;5049424;28;20044;-90
2023/09/03 03:16:08;;;;;;;23.63;15.77;;;;;;;13.90;100.00;102533.94;5016169;28;20045;-91
2023/09/03 03:18:36;;;;;;;24.95;16.05;;;;;;;13.89;100.00;102536.72;5016395;28;20129;-91
2023/09/03 03:21:07;;;;;;;23.48;16.75;;;;;;;13.84;100.00;102520.00;5016211;28;20076;-90
2023/09/03 03:23:37;;;;;;;23.55;17.88;;;;;;;13.87;100.00;102525.22;5019075;28;20069;-90
2023/09/03 03:26:04;;;;;;;23.15;16.92;;;;;;;13.90;100.00;102535.78;5019721;28;20033;-90
2023/09/03 03:28:33;;;;;;;25.13;16.63;;;;;;;13.80;100.00;102554.13;5035051;28;20041;-90
2023/09/03 03:31:14;;;;;;;28.45;15.48;;;;;;;13.63;100.00;102540.69;5052809;28;20026;-89
2023/09/03 03:33:42;;;;;;;19.05;15.00;;;;;;;13.60;100.00;102554.25;5053913;28;20037;-90
2023/09/03 03:36:15;;;;;;;26.80;15.80;;;;;;;13.61;100.00;102556.88;5052946;28;20081;-91
2023/09/03 03:38:41;;;;;;;24.85;17.40;;;;;;;13.71;100.00;102552.78;5020791;28;20074;-91
2023/09/03 03:41:17;;;;;;;27.58;17.80;;;;;;;13.73;100.00;102550.88;5020947;28;20037;-90
2023/09/03 03:43:46;;;;;;;27.92;18.67;;;;;;;13.77;100.00;102553.44;5037119;28;20034;-90
2023/09/03 03:46:16;;;;;;;27.45;18.48;;;;;;;13.67;100.00;102555.69;5020588;28;20022;-90
2023/09/03 03:48:45;;;;;;;25.27;15.82;;;;;;;13.59;100.00;102553.38;5037551;28;20052;-89
2023/09/03 03:51:11;;;;;;;35.35;20.42;;;;;;;13.65;100.00;102554.88;5019227;28;20034;-91
2023/09/03 03:53:37;;;;;;;28.52;19.05;;;;;;;13.62;100.00;102558.59;5035723;28;20052;-90
2023/09/03 03:56:05;;;;;;;29.50;18.52;;;;;;;13.48;100.00;102553.03;5051428;28;20999;-89
2023/09/03 03:58:33;;;;;;;26.95;17.67;;;;;;;13.43;100.00;102558.59;5018466;28;20048;-90
2023/09/03 04:00:59;;;;;;;32.28;14.60;;;;;;;13.33;100.00;102559.13;5049184;28;20045;-89
2023/09/03 04:03:28;;;;;;;66.55;13.45;;;;;;;13.30;100.00;102565.47;5049600;28;20041;-89
2023/09/03 04:06:01;;;;;;;20.95;12.88;;;;;;;13.35;100.00;102568.81;5032462;28;20087;-89
2023/09/03 04:08:29;;;;;;;29.52;16.67;;;;;;;13.33;100.00;102576.06;5030939;28;20052;-89
2023/09/03 04:11:00;;;;;;;25.08;17.08;;;;;;;13.32;100.00;102568.97;5030093;28;20033;-89
2023/09/03 04:13:27;;;;;;;24.17;16.17;;;;;;;13.31;100.00;102571.75;5047850;28;20037;-90
2023/09/03 04:15:54;;;;;;;23.02;15.85;;;;;;;13.29;100.00;102570.91;5030018;28;20026;-89
2023/09/03 04:18:20;;;;;;;19.95;13.73;;;;;;;13.23;100.00;102579.25;5032025;28;20056;-89
2023/09/03 04:20:51;;;;;;;89.85;21.23;;;;;;;13.15;100.00;102584.91;5036267;28;20029;-89
2023/09/03 04:23:17;;;;;;;60.15;15.75;;;;;;;13.10;100.00;102592.28;5039175;28;20034;-90
2023/09/03 04:25:42;;;;;;;168.57;22.02;;;;;;;13.02;100.00;102594.47;5055999;28;20058;-89
2023/09/03 04:28:12;;;;;;;62.13;14.85;;;;;;;13.02;100.00;102589.13;5073883;28;20048;-89
2023/09/03 04:30:38;;;;;;;20.52;13.65;;;;;;;13.06;100.00;102572.84;5039472;28;20037;-90
2023/09/03 04:33:07;;;;;;;20.95;14.85;;;;;;;12.99;100.00;102582.06;5038753;28;20030;-89
2023/09/03 04:35:34;;;;;;;31.45;19.48;;;;;;;13.00;100.00;102586.50;5038806;28;20034;-90
2023/09/03 04:38:00;;;;;;;126.55;27.15;;;;;;;12.93;100.00;102587.72;5037725;28;20026;-90
2023/09/03 04:40:26;;;;;;;60.67;21.52;;;;;;;12.95;100.00;102594.75;5053621;28;20029;-89
2023/09/03 04:42:56;;;;;;;23.70;16.60;;;;;;;12.98;100.00;102593.72;5051242;28;20036;-90
2023/09/03 04:45:22;;;;;;;33.42;19.35;;;;;;;12.95;100.00;102586.72;5032773;28;20044;-90
2023/09/03 04:47:49;;;;;;;24.40;17.30;;;;;;;13.06;100.00;102588.91;5048678;28;20145;-90
2023/09/03 04:50:15;;;;;;;24.45;16.98;;;;;;;13.11;100.00;102578.84;5032623;28;20040;-90
2023/09/03 04:52:45;;;;;;;35.97;18.85;;;;;;;13.21;100.00;102580.19;5047746;28;20045;-90
2023/09/03 04:55:12;;;;;;;24.73;16.77;;;;;;;13.27;100.00;102589.75;5032916;28;20068;-89
2023/09/03 04:57:38;;;;;;;30.25;18.40;;;;;;;13.27;100.00;102591.56;5032003;28;20013;-90
2023/09/03 05:00:05;;;;;;;16.13;11.18;;;;;;;13.25;100.00;102588.06;5032062;28;20861;-90
2023/09/03 05:02:31;;;;;;;12.82;10.55;;;;;;;13.21;100.00;102595.38;5031615;28;20034;-90
2023/09/03 05:04:58;;;;;;;20.73;14.57;;;;;;;13.24;100.00;102594.38;5030447;28;20033;-88
2023/09/03 05:07:24;;;;;;;22.10;15.02;;;;;;;13.33;100.00;102604.69;5029610;28;20044;-89
2023/09/03 05:09:53;;;;;;;20.48;14.80;;;;;;;13.25;100.00;102602.34;5044948;28;20060;-89
2023/09/03 05:12:19;;;;;;;18.38;13.20;;;;;;;13.29;100.00;102601.25;5025940;28;20509;-90
2023/09/03 05:14:45;;;;;;;17.67;13.20;;;;;;;13.37;100.00;102611.63;5026148;28;20041;-89
2023/09/03 05:17:11;;;;;;;19.08;13.57;;;;;;;13.41;100.00;102610.56;5023962;28;20049;-90
2023/09/03 05:19:37;;;;;;;25.33;16.30;;;;;;;13.53;100.00;102604.59;5040729;28;20041;-89
2023/09/03 05:22:03;;;;;;;24.88;15.18;;;;;;;13.67;100.00;102620.03;5040348;28;20095;-90
2023/09/03 05:24:29;;;;;;;21.98;14.15;;;;;;;13.77;100.00;102631.19;5040283;28;20038;-89
2023/09/03 05:26:55;;;;;;;28.30;19.40;;;;;;;13.83;100.00;102644.28;5023006;28;20069;-90
2023/09/03 05:29:21;;;;;;;25.73;16.63;;;;;;;13.82;100.00;102648.78;5022742;28;20121;-89
2023/09/03 05:31:47;;;;;;;30.10;17.67;;;;;;;13.78;100.00;102641.84;5039379;28;20382;-89
2023/09/03 05:34:13;;;;;;;27.52;17.73;;;;;;;13.87;100.00;102643.22;5039031;28;20038;-90
2023/09/03 05:36:43;;;;;;;26.65;17.45;;;;;;;13.97;100.00;102639.13;5022194;28;20033;-89
2023/09/03 05:39:09;;;;;;;25.10;17.00;;;;;;;14.12;100.00;102626.78;5038112;28;20044;-89
2023/09/03 05:41:34;;;;;;;28.58;18.90;;;;;;;14.27;100.00;102625.16;5022017;28;20052;-90
2023/09/03 05:44:09;;;;;;;27.60;17.48;;;;;;;14.37;100.00;102632.66;5038638;28;20033;-90
2023/09/03 05:46:37;;;;;;;32.97;20.15;;;;;;;14.41;100.00;102636.06;5022014;28;20073;-90
2023/09/03 05:49:02;;;;;;;37.67;21.50;;;;;;;14.41;100.00;102636.06;5022027;28;20033;-90
2023/09/03 05:51:28;;;;;;;24.50;15.32;;;;;;;14.48;100.00;102635.69;5040809;28;20030;-90
2023/09/03 05:53:54;;;;;;;27.77;17.40;;;;;;;14.55;100.00;102640.75;5042094;28;20538;-90
2023/09/03 05:56:22;;;;;;;31.13;18.67;;;;;;;14.55;100.00;102649.66;5059944;28;20033;-90
2023/09/03 05:58:50;;;;;;;31.60;19.48;;;;;;;14.66;100.00;102654.47;5041271;28;20063;-90
2023/09/03 06:01:16;;;;;;;26.67;18.92;;;;;;;14.65;100.00;102667.03;5059794;28;20041;-90
2023/09/03 06:03:42;;;;;;;28.88;19.17;;;;;;;14.70;100.00;102682.91;5024811;28;20037;-89
2023/09/03 06:06:11;;;;;;;33.53;19.55;;;;;;;14.41;100.00;102695.97;5025291;28;20060;-90
2023/09/03 06:08:37;;;;;;;39.17;20.33;;;;;;;14.53;100.00;102699.03;5024875;28;20041;-91
2023/09/03 06:11:05;;;;;;;29.75;19.55;;;;;;;14.33;100.00;102705.34;5024775;28;20039;-90
2023/09/03 06:13:33;;;;;;;35.20;21.63;;;;;;;14.40;100.00;102713.00;5041718;28;20069;-90
2023/09/03 06:15:59;;;;;;;31.50;20.10;;;;;;;14.63;100.00;102705.66;5025282;28;20037;-90
2023/09/03 06:18:25;;;;;;;39.03;23.70;;;;;;;14.53;100.00;102707.06;5060322;28;20030;-90
2023/09/03 06:20:51;;;;;;;38.00;24.75;;;;;;;14.63;100.00;102708.34;5025120;28;20034;-90
2023/09/03 06:23:18;;;;;;;32.55;22.33;;;;;;;14.73;100.00;102720.38;5041725;28;20034;-91
2023/09/03 06:25:46;;;;;;;34.22;23.45;;;;;;;14.92;100.00;102720.31;5024739;28;20045;-90
2023/09/03 06:28:12;;;;;;;33.15;22.80;;;;;;;14.97;100.00;102726.31;5019551;28;20111;-91
2023/09/03 06:30:38;;;;;;;32.00;21.80;;;;;;;15.12;100.00;102735.38;5041214;28;20037;-91
2023/09/03 06:33:04;;;;;;;36.03;23.58;;;;;;;15.20;100.00;102741.22;5041320;28;20034;-90
2023/09/03 06:35:30;;;;;;;37.67;24.08;;;;;;;15.22;100.00;102742.03;5040488;28;20045;-91
2023/09/03 06:37:56;;;;;;;36.50;24.08;;;;;;;15.22;100.00;102744.72;5040412;28;20045;-90
2023/09/03 06:40:22;;;;;;;36.97;24.40;;;;;;;15.36;100.00;102752.91;5041176;28;20053;-90
2023/09/03 06:42:48;;;;;;;35.58;22.85;;;;;;;15.39;100.00;102743.81;5040109;28;20100;-91
2023/09/03 06:45:17;;;;;;;36.83;23.88;;;;;;;15.29;100.00;102751.47;5030735;28;20070;-91
2023/09/03 06:47:44;;;;;;;37.53;24.65;;;;;;;15.29;100.00;102754.16;5036786;28;20066;-90
2023/09/03 06:50:11;;;;;;;36.17;22.92;;;;;;;15.39;100.00;102763.50;5004361;28;20033;-91
2023/09/03 06:52:37;;;;;;;32.20;22.50;;;;;;;15.51;100.00;102743.13;5020011;28;20120;-91
2023/09/03 06:55:04;;;;;;;35.85;23.33;;;;;;;15.62;100.00;102746.13;5020855;28;20065;-91
2023/09/03 06:57:30;;;;;;;38.15;23.05;;;;;;;15.99;100.00;102741.44;5021565;28;20107;-92
2023/09/03 06:59:57;;;;;;;39.67;25.50;;;;;;;16.11;100.00;102738.06;5021366;28;20033;-90
2023/09/03 07:02:26;;;;;;;32.47;22.38;;;;;;;16.26;100.00;102731.81;5019955;28;20085;-91
2023/09/03 07:04:52;;;;;;;34.58;22.98;;;;;;;16.05;100.00;102731.19;5004788;28;20073;-91
2023/09/03 07:07:19;;;;;;;31.45;23.05;;;;;;;16.13;100.00;102721.84;5022221;28;20045;-92
2023/09/03 07:09:45;;;;;;;35.63;22.60;;;;;;;16.45;100.00;102734.31;5005364;28;20368;-92
2023/09/03 07:12:11;;;;;;;32.15;21.90;;;;;;;16.57;100.00;102736.31;5016063;28;20120;-93
2023/09/03 07:14:37;;;;;;;34.78;20.77;;;;;;;16.93;100.00;102737.81;5006724;28;20121;-92
2023/09/03 07:17:03;;;;;;;36.15;23.88;;;;;;;16.74;100.00;102739.88;5035672;28;20482;-92
2023/09/03 07:19:31;;;;;;;32.08;22.38;;;;;;;17.23;100.00;102740.50;5026016;28;20049;-92
2023/09/03 07:21:57;;;;;;;29.52;22.35;;;;;;;17.00;100.00;102735.63;5042562;28;20042;-91
2023/09/03 07:24:24;;;;;;;33.33;22.98;;;;;;;17.25;100.00;102749.34;5042739;28;20065;-92
2023/09/03 07:26:50;;;;;;;32.60;23.52;;;;;;;17.28;100.00;102745.59;5041196;28;20041;-93
2023/09/03 07:29:16;;;;;;;34.78;23.30;;;;;;;17.30;100.00;102758.00;5058919;28;20376;-94
2023/09/03 07:31:43;;;;;;;31.02;22.63;;;;;;;17.44;100.00;102751.78;5024718;28;20045;-93
2023/09/03 07:34:11;;;;;;;32.67;23.77;;;;;;;17.59;100.00;102744.56;5025146;28;20025;-92
2023/09/03 07:36:38;;;;;;;29.65;21.83;;;;;;;17.71;100.00;102745.59;5034055;28;20041;-94
2023/09/03 07:39:09;;;;;;;32.63;23.15;;;;;;;17.51;100.00;102754.94;5021053;28;20038;-94
2023/09/03 07:41:35;;;;;;;28.43;21.90;;;;;;;17.84;100.00;102749.31;5015345;28;20037;-95
2023/09/03 07:44:01;;;;;;;30.52;22.33;;;;;;;17.82;100.00;102745.81;5032209;28;20038;-87
2023/09/03 07:46:27;;;;;;;32.65;22.10;;;;;;;17.83;100.00;102750.28;5007442;28;20037;-93
2023/09/03 07:48:53;;;;;;;31.58;22.08;;;;;;;18.00;100.00;102754.59;5022812;28;20045;-93
2023/09/03 07:51:20;;;;;;;35.85;23.02;;;;;;;18.22;100.00;102756.75;5033427;28;20048;-92
2023/09/03 07:53:49;;;;;;;27.23;19.85;;;;;;;17.93;100.00;102772.16;5028945;28;20026;-91
2023/09/03 07:56:18;;;;;;;29.88;21.17;;;;;;;18.09;100.00;102752.16;5030927;28;20049;-88
2023/09/03 07:58:44;;;;;;;26.15;19.50;;;;;;;18.11;100.00;102758.31;5019208;28;20037;-93
2023/09/03 08:01:11;;;;;;;26.63;20.45;;;;;;;18.46;100.00;102749.75;5032411;28;20040;-92
2023/09/03 08:03:38;;;;;;;28.30;21.20;;;;;;;18.58;100.00;102748.94;5018971;28;20037;-90
2023/09/03 08:06:04;;;;;;;29.35;20.48;;;;;;;18.67;100.00;102752.84;5009326;28;20093;-92
2023/09/03 08:08:30;;;;;;;28.50;20.00;;;;;;;18.69;100.00;102752.81;5024072;28;20037;-93
2023/09/03 08:10:57;;;;;;;28.42;19.83;;;;;;;18.98;100.00;102756.25;5024482;28;20069;-89
2023/09/03 08:13:24;;;;;;;23.83;18.45;;;;;;;18.80;100.00;102751.09;5025212;28;20026;-91
2023/09/03 08:15:50;;;;;;;24.65;18.23;;;;;;;18.83;100.00;102753.59;5010707;28;20036;-93
2023/09/03 08:18:16;;;;;;;21.85;17.65;;;;;;;18.99;100.00;102748.00;5025870;28;20161;-94
2023/09/03 08:20:42;;;;;;;22.15;16.67;;;;;;;19.32;100.00;102752.03;5005046;28;20100;-94
2023/09/03 08:23:12;;;;;;;21.27;16.90;;;;;;;19.18;100.00;102754.84;5029416;28;20026;-93
2023/09/03 08:25:39;;;;;;;26.15;17.00;;;;;;;18.95;100.00;102756.44;5029387;28;20034;-89
2023/09/03 08:28:07;;;;;;;26.02;19.63;;;;;;;19.20;100.00;102750.22;5028319;28;20818;-94
2023/09/03 08:30:33;;;;;;;25.25;19.02;;;;;;;19.31;100.00;102745.78;5029080;28;20033;-87
2023/09/03 08:32:59;;;;;;;27.40;19.83;;;;;;;19.23;100.00;102749.97;5022751;28;20605;-92
2023/09/03 08:35:27;;;;;;;27.75;20.92;;;;;;;19.45;100.00;102744.81;5034339;28;20043;-92
2023/09/03 08:37:54;;;;;;;34.17;20.75;;;;;;;19.48;100.00;102743.72;5027868;28;20081;-89
2023/09/03 08:40:20;;;;;;;21.55;16.88;;;;;;;19.75;100.00;102736.38;5010932;28;20889;-90
2023/09/03 08:42:52;;;;;;;20.73;15.45;;;;;;;19.44;100.00;102739.50;5033455;28;20026;-93
2023/09/03 08:45:19;;;;;;;19.25;14.45;;;;;;;19.74;100.00;102745.47;5045406;28;20093;-89
2023/09/03 08:47:45;;;;;;;19.85;13.20;;;;;;;19.48;100.00;102744.59;5008735;28;20049;-89
2023/09/03 08:50:21;;;;;;;20.00;12.80;;;;;;;19.98;100.00;102740.13;5042048;28;21409;-91
2023/09/03 08:52:47;;;;;;;20.02;13.10;;;;;;;20.06;100.00;102748.53;5011682;28;20026;-89
2023/09/03 08:55:13;;;;;;;14.93;11.65;;;;;;;20.10;100.00;102743.78;5027943;28;20037;-93
2023/09/03 08:57:41;;;;;;;17.40;12.57;;;;;;;20.48;100.00;102745.50;5010544;28;20034;-91
2023/09/03 09:00:08;;;;;;;15.38;12.05;;;;;;;20.69;100.00;102741.19;5051912;28;20029;-93
2023/09/03 09:02:35;;;;;;;19.23;12.48;;;;;;;20.60;100.00;102744.59;5027076;28;20060;-91
2023/09/03 09:05:02;;;;;;;17.63;14.70;;;;;;;20.80;100.00;102743.94;5013127;28;20834;-93
2023/09/03 09:07:27;;;;;;;15.18;12.13;;;;;;;20.61;100.00;102747.19;5008191;28;20042;-94
2023/09/03 09:09:58;;;;;;;17.70;12.55;;;;;;;20.65;100.00;102743.25;5039366;28;20352;-89
2023/09/03 09:12:51;;;;;;;17.10;13.20;;;;;;;20.76;100.00;102737.03;5024068;28;20034;-88
2023/09/03 09:15:17;;;;;;;16.80;12.68;;;;;;;20.86;100.00;102746.19;5022963;28;20049;-90
2023/09/03 09:17:43;;;;;;;22.20;14.05;;;;;;;21.25;100.00;102746.78;5013398;28;20446;-94
2023/09/03 09:20:14;;;;;;;20.20;13.70;;;;;;;21.17;100.00;102754.66;5047103;28;20030;-89
2023/09/03 09:22:49;;;;;;;15.85;12.73;;;;;;;21.01;100.00;102754.13;4997321;28;20037;-95
2023/09/03 09:25:25;;;;;;;15.25;12.00;;;;;;;21.24;100.00;102750.50;5026032;28;20026;-93
2023/09/03 09:28:09;;;;;;;17.33;13.05;;;;;;;21.31;100.00;102756.34;5010884;28;20045;-88
2023/09/03 09:30:35;;;;;;;15.60;12.50;;;;;;;21.19;100.00;102753.56;5020522;28;20189;-88
2023/09/03 09:33:06;;;;;;;19.33;12.73;;;;;;;20.86;100.00;102762.44;5009493;28;20094;-91
2023/09/03 09:35:34;;;;;;;18.58;11.88;;;;;;;21.01;99.37;102762.25;5011812;28;20045;-92
2023/09/03 09:38:04;;;;;;;14.45;11.20;;;;;;;21.11;98.46;102750.56;5031819;28;20812;-91
2023/09/03 09:40:31;;;;;;;14.05;10.30;;;;;;;20.89;93.34;102754.09;5005579;28;20311;-92
2023/09/03 09:43:01;;;;;;;14.77;10.27;;;;;;;21.49;93.55;102752.19;5028738;28;20033;-93
2023/09/03 09:45:31;;;;;;;16.35;11.02;;;;;;;22.01;96.00;102752.53;5034440;28;20088;-91
2023/09/03 09:48:10;;;;;;;13.15;10.07;;;;;;;21.90;89.31;102754.28;5019477;28;20765;-96
2023/09/03 09:50:38;;;;;;;13.32;10.35;;;;;;;21.76;91.03;102750.94;5018031;28;20030;-93
2023/09/03 09:53:05;;;;;;;15.90;11.95;;;;;;;21.32;94.87;102744.47;5033177;28;20057;-89
2023/09/03 09:55:32;;;;;;;14.63;11.80;;;;;;;21.98;90.83;102746.34;5048363;28;20124;-88
2023/09/03 09:58:01;;;;;;;13.68;11.27;;;;;;;22.11;92.07;102751.69;5056152;28;20029;-90
2023/09/03 10:00:35;;;;;;;12.10;9.80;;;;;;;22.00;91.26;102753.53;5020980;28;20101;-91
2023/09/03 10:03:01;;;;;;;13.73;11.00;;;;;;;21.71;89.15;102754.88;5048914;28;20026;-90
2023/09/03 10:05:26;;;;;;;12.63;9.82;;;;;;;21.84;87.88;102754.78;5058133;28;20030;-94
2023/09/03 10:07:55;;;;;;;13.60;8.80;;;;;;;21.79;87.56;102753.41;5047918;28;20697;-90
2023/09/03 10:10:27;;;;;;;8.27;5.93;;;;;;;21.91;80.38;102744.28;5022853;28;20084;-89
2023/09/03 10:12:55;;;;;;;11.63;6.88;;;;;;;21.95;78.29;102759.34;5027086;28;20045;-92
2023/09/03 10:15:27;;;;;;;8.93;8.02;;;;;;;22.27;80.09;102756.72;5027741;28;20097;-91
2023/09/03 10:17:54;;;;;;;;;;;;;;;22.32;78.92;102756.34;5044986;28;20049;-89
2023/09/03 10:20:25;;;;;;;9.25;6.80;;;;;;;22.32;80.12;102757.19;5041769;28;19916;-89
2023/09/03 10:22:56;;;;;;;9.00;8.07;;;;;;;22.44;79.28;102761.63;5035933;28;20034;-91
2023/09/03 10:25:26;;;;;;;10.55;8.07;;;;;;;22.14;81.08;102762.31;5052109;28;20034;-90
2023/09/03 10:28:04;;;;;;;10.10;7.28;;;;;;;22.52;77.52;102754.69;5023720;28;20795;-88
2023/09/03 10:30:34;;;;;;;6.57;5.93;;;;;;;22.86;73.80;102752.69;5044884;28;20042;-88
2023/09/03 10:33:06;;;;;;;8.95;6.20;;;;;;;23.12;73.58;102759.50;5027633;28;20041;-89
2023/09/03 10:35:31;;;;;;;8.55;6.13;;;;;;;23.16;73.29;102760.13;5049177;28;20080;-90
2023/09/03 10:38:00;;;;;;;6.00;5.28;;;;;;;23.01;74.99;102756.88;5044250;28;20029;-90
2023/09/03 10:40:30;;;;;;;6.80;5.60;;;;;;;22.65;74.31;102753.53;5020251;28;20034;-89
2023/09/03 10:43:14;;;;;;;6.57;5.80;;;;;;;22.65;71.51;102752.66;5020080;28;20037;-88
2023/09/03 10:46:06;;;;;;;10.32;7.47;;;;;;;22.64;75.12;102746.38;5022679;28;20044;-89
2023/09/03 10:48:36;;;;;;;8.32;5.80;;;;;;;22.42;77.47;102747.28;5043149;28;20065;-89
2023/09/03 10:51:02;;;;;;;6.85;4.40;;;;;;;22.37;70.89;102740.50;5038160;28;20049;-91
2023/09/03 10:53:41;;;;;;;6.68;5.97;;;;;;;22.38;72.97;102736.78;5029179;28;20033;-91
2023/09/03 10:56:10;;;;;;;7.47;5.32;;;;;;;22.45;71.40;102733.44;5043650;28;20082;-90
2023/09/03 10:58:51;;;;;;;5.38;4.72;;;;;;;22.65;75.61;102739.06;5043443;28;20042;-89
2023/09/03 11:01:30;;;;;;;7.07;4.45;;;;;;;22.31;75.01;102741.03;5058746;28;20558;-89
2023/09/03 11:03:58;;;;;;;6.88;5.20;;;;;;;22.53;73.25;102743.66;5023614;28;20030;-91
2023/09/03 11:06:32;;;;;;;8.05;6.22;;;;;;;22.57;73.13;102742.44;5046167;28;20045;-88
2023/09/03 11:09:10;;;;;;;11.38;6.85;;;;;;;22.88;76.80;102740.72;5019695;28;20058;-90
2023/09/03 11:11:38;;;;;;;6.88;5.80;;;;;;;22.73;74.13;102739.25;5040386;28;20075;-89